Airport View

Enter AWOS ICAO identifier for current METAR.

ex. KFNL

KMMV 181253Z AUTO 09003KT 10SM OVC033 06/04 A3009 RMK AO2 RAE46 SLP190 P0000 T00560039

18 Jan 2020 13:01

Frequency: 135.675

Phone: 503-434-9153

Other Area AWOS: KUAO - KSLE - KHIO - KTMK

TAF KSLE 181140Z 1812/1912 29005KT P6SM -RA BKN040 OVC060 FM181700 17010KT 5SM -RA BR OVC027 FM182000 18011KT P6SM -RA OVC035 FM190900 17003KT P6SM OVC050